Time;durP1;ratioP1;P1;durP2;ratioP2;P2;SDS_P1;SDS_P2;PMS_P1;PMS_P2;Temp;Humidity;BMP_temperature;BMP_pressure;BME280_temperature;BME280_humidity;BME280_pressure;Samples;Min_cycle;Max_cycle;Signal;HPM_P1;HPM_P2
2021/10/22 00:01:57;;;;;;;1.93;1.20;;;;;;;5.60;90.37;95512.25;5077977;28;20258;-78
2021/10/22 00:04:22;;;;;;;2.50;1.40;;;;;;;5.57;90.51;95519.41;5077687;28;20188;-80
2021/10/22 00:06:48;;;;;;;3.77;1.13;;;;;;;5.50;90.60;95529.34;5078049;28;20198;-80
2021/10/22 00:09:13;;;;;;;2.10;1.27;;;;;;;5.46;90.39;95525.34;5061265;28;20718;-79
2021/10/22 00:11:43;;;;;;;1.90;1.30;;;;;;;5.37;90.64;95528.63;5061238;28;20180;-79
2021/10/22 00:14:09;;;;;;;4.13;1.23;;;;;;;5.31;91.07;95529.09;5061499;28;20263;-78
2021/10/22 00:16:35;;;;;;;2.03;1.30;;;;;;;5.28;91.16;95527.56;5077897;28;20255;-79
2021/10/22 00:19:00;;;;;;;3.30;1.70;;;;;;;5.28;91.08;95530.13;5077582;28;20904;-80
2021/10/22 00:21:25;;;;;;;2.10;1.37;;;;;;;5.16;91.45;95540.56;5077747;28;20184;-78
2021/10/22 00:23:51;;;;;;;4.97;1.53;;;;;;;5.11;91.70;95539.13;5095474;28;20184;-79
2021/10/22 00:26:16;;;;;;;1.80;1.50;;;;;;;5.13;92.30;95545.94;5077923;28;20183;-80
2021/10/22 00:28:43;;;;;;;1.77;1.33;;;;;;;5.12;92.52;95545.09;5095446;28;20208;-78
2021/10/22 00:31:08;;;;;;;4.23;1.93;;;;;;;5.20;92.65;95545.34;5061105;28;20176;-78
2021/10/22 00:33:34;;;;;;;3.97;1.77;;;;;;;5.24;92.54;95558.81;5057255;28;20444;-79
2021/10/22 00:35:59;;;;;;;5.17;1.77;;;;;;;5.29;92.54;95557.53;5050577;28;20598;-79
2021/10/22 00:38:25;;;;;;;6.63;2.30;;;;;;;5.32;92.56;95552.16;5057442;28;20617;-79
2021/10/22 00:40:52;;;;;;;4.23;3.10;;;;;;;5.40;92.50;95556.75;5077211;28;20199;-79
2021/10/22 00:43:18;;;;;;;4.27;2.77;;;;;;;5.37;92.88;95560.34;5063477;28;20180;-79
2021/10/22 00:45:43;;;;;;;3.90;2.97;;;;;;;5.44;92.48;95555.56;5078527;28;20260;-79
2021/10/22 00:48:08;;;;;;;5.73;2.37;;;;;;;5.37;92.90;95555.19;5076671;28;20206;-79
2021/10/22 00:50:39;;;;;;;5.37;2.50;;;;;;;5.36;92.67;95561.28;5071851;28;20196;-79
2021/10/22 00:53:05;;;;;;;4.87;2.67;;;;;;;5.27;92.67;95564.53;5056837;28;20623;-80
2021/10/22 00:55:30;;;;;;;4.00;2.27;;;;;;;5.23;92.90;95567.47;5039582;28;20205;-78
2021/10/22 00:57:57;;;;;;;4.43;2.10;;;;;;;5.14;92.93;95573.31;5056775;28;20216;-78
2021/10/22 01:00:22;;;;;;;8.77;2.43;;;;;;;5.05;93.06;95572.25;5039033;28;20242;-79
2021/10/22 01:02:47;;;;;;;3.23;2.00;;;;;;;5.03;92.85;95569.75;5056519;28;20648;-80
2021/10/22 01:05:15;;;;;;;4.13;2.40;;;;;;;5.02;92.87;95570.69;5055931;28;20192;-80
2021/10/22 01:07:41;;;;;;;8.73;2.10;;;;;;;4.98;92.82;95568.47;5039820;28;20209;-78
2021/10/22 01:10:07;;;;;;;6.23;2.40;;;;;;;4.92;92.93;95563.78;5039842;28;20547;-78
2021/10/22 01:12:34;;;;;;;6.03;2.00;;;;;;;4.90;92.29;95557.91;5055373;28;20185;-79
2021/10/22 01:15:00;;;;;;;6.87;2.00;;;;;;;4.87;92.99;95556.41;5055615;28;20177;-79
2021/10/22 01:17:37;;;;;;;4.57;1.80;;;;;;;4.83;92.62;95555.78;5039336;28;20203;-79
2021/10/22 01:20:08;;;;;;;6.77;2.13;;;;;;;4.80;92.79;95552.63;5074137;28;20538;-79
2021/10/22 01:22:34;;;;;;;5.73;1.97;;;;;;;4.77;92.49;95560.56;5056326;28;20262;-78
2021/10/22 01:25:00;;;;;;;6.83;2.10;;;;;;;4.75;92.27;95559.84;5039110;28;20181;-79
2021/10/22 01:27:25;;;;;;;2.07;1.53;;;;;;;4.69;92.60;95566.28;5039042;28;20223;-78
2021/10/22 01:29:50;;;;;;;6.47;1.83;;;;;;;4.64;92.85;95567.53;5056341;28;20183;-80
2021/10/22 01:32:16;;;;;;;4.40;1.70;;;;;;;4.62;92.85;95566.84;5056462;28;20556;-78
2021/10/22 01:34:41;;;;;;;9.20;1.60;;;;;;;4.56;92.56;95562.94;5038916;28;20189;-79
2021/10/22 01:37:07;;;;;;;8.00;1.60;;;;;;;4.51;92.39;95565.03;5039563;28;20205;-78
2021/10/22 01:39:32;;;;;;;5.63;2.00;;;;;;;4.43;92.71;95555.31;5039358;28;20191;-79
2021/10/22 01:41:57;;;;;;;5.77;2.10;;;;;;;4.43;92.34;95563.00;5056004;28;20212;-78
2021/10/22 01:44:24;;;;;;;7.60;1.97;;;;;;;4.40;91.89;95570.09;5073676;28;20578;-80
2021/10/22 01:46:50;;;;;;;6.67;1.63;;;;;;;4.37;92.21;95560.06;5039188;28;20173;-79
2021/10/22 01:49:15;;;;;;;5.03;1.73;;;;;;;4.35;92.08;95560.16;5055639;28;20200;-78
2021/10/22 01:51:40;;;;;;;6.07;2.33;;;;;;;4.33;92.14;95554.31;5055752;28;20243;-79
2021/10/22 01:54:06;;;;;;;7.70;1.90;;;;;;;4.25;91.88;95562.56;5055164;28;20173;-78
2021/10/22 01:56:32;;;;;;;5.07;1.50;;;;;;;4.28;92.16;95560.72;5055707;28;20192;-78
2021/10/22 01:58:57;;;;;;;12.00;1.80;;;;;;;4.28;92.22;95560.72;5037789;28;20660;-79
2021/10/22 02:01:22;;;;;;;10.30;2.00;;;;;;;4.26;91.45;95566.78;5055636;28;20262;-80
2021/10/22 02:03:48;;;;;;;8.37;2.07;;;;;;;4.19;91.36;95569.88;5038335;28;20640;-79
2021/10/22 02:06:13;;;;;;;5.77;1.60;;;;;;;4.12;90.72;95577.19;5056140;28;20194;-82
2021/10/22 02:08:38;;;;;;;8.53;2.00;;;;;;;4.13;91.54;95573.69;5058712;28;20268;-81
2021/10/22 02:11:04;;;;;;;9.50;1.70;;;;;;;4.10;91.27;95571.34;5039181;28;20226;-79
2021/10/22 02:13:29;;;;;;;10.33;1.73;;;;;;;4.09;91.54;95568.91;5073189;28;20209;-81
2021/10/22 02:15:55;;;;;;;7.03;1.70;;;;;;;4.04;91.24;95571.78;5038384;28;20213;-79
2021/10/22 02:18:20;;;;;;;6.97;1.70;;;;;;;4.01;91.37;95572.00;5073157;28;20676;-79
2021/10/22 02:20:46;;;;;;;11.23;2.23;;;;;;;4.00;90.67;95566.97;5073468;28;20647;-80
2021/10/22 02:23:11;;;;;;;9.73;2.23;;;;;;;4.00;91.20;95574.69;5038298;28;20600;-81
2021/10/22 02:25:37;;;;;;;10.67;2.37;;;;;;;3.99;91.06;95566.16;5054587;28;20580;-79
2021/10/22 02:28:02;;;;;;;8.10;1.93;;;;;;;4.01;90.96;95572.00;5038523;28;20244;-79
2021/10/22 02:30:27;;;;;;;8.43;3.60;;;;;;;3.99;90.69;95573.88;5038470;28;20189;-79
2021/10/22 02:32:53;;;;;;;9.67;2.10;;;;;;;3.98;91.03;95573.03;5055196;28;20203;-78
2021/10/22 02:35:18;;;;;;;7.53;1.83;;;;;;;3.97;90.51;95581.66;5054709;28;20174;-78
2021/10/22 02:37:45;;;;;;;12.30;2.30;;;;;;;3.94;90.40;95581.88;5055015;28;20200;-79
2021/10/22 02:40:11;;;;;;;9.00;2.10;;;;;;;3.93;90.62;95582.81;5055564;28;20247;-79
2021/10/22 02:42:37;;;;;;;11.97;2.17;;;;;;;3.94;90.53;95581.88;5054811;28;20595;-79
2021/10/22 02:45:03;;;;;;;9.00;1.97;;;;;;;3.93;90.47;95585.38;5037646;28;20185;-79
2021/10/22 02:47:28;;;;;;;9.73;2.20;;;;;;;3.93;90.72;95582.00;5038450;28;20229;-78
2021/10/22 02:49:54;;;;;;;10.20;1.97;;;;;;;3.92;90.73;95586.31;5073137;28;20185;-79
2021/10/22 02:52:19;;;;;;;9.07;2.17;;;;;;;3.91;91.06;95594.13;5038356;28;20251;-79
2021/10/22 02:54:44;;;;;;;9.90;2.03;;;;;;;3.83;90.93;95591.25;5054210;28;20181;-78
2021/10/22 02:57:09;;;;;;;10.20;2.10;;;;;;;3.80;90.85;95589.72;5055157;28;20204;-79
2021/10/22 02:59:35;;;;;;;11.70;2.13;;;;;;;3.73;90.92;95590.25;5053450;28;20180;-79
2021/10/22 03:02:00;;;;;;;9.73;2.20;;;;;;;3.65;91.13;95586.47;5038083;28;20647;-80
2021/10/22 03:04:25;;;;;;;10.50;1.90;;;;;;;3.58;91.29;95590.34;5054182;28;20190;-79
2021/10/22 03:06:51;;;;;;;10.43;2.43;;;;;;;3.53;91.59;95591.59;5038075;28;20196;-78
2021/10/22 03:09:16;;;;;;;11.73;2.50;;;;;;;3.48;91.91;95591.09;5037950;28;20208;-80
2021/10/22 03:11:41;;;;;;;7.13;2.10;;;;;;;3.41;92.07;95595.81;5055167;28;20589;-79
2021/10/22 03:14:07;;;;;;;8.23;1.80;;;;;;;3.39;92.15;95597.66;5037367;28;20654;-78
2021/10/22 03:16:32;;;;;;;11.53;2.50;;;;;;;3.32;92.84;95594.69;5054431;28;20534;-81
2021/10/22 03:18:57;;;;;;;6.17;2.07;;;;;;;3.31;92.65;95597.34;5054321;28;20203;-79
2021/10/22 03:21:23;;;;;;;12.10;2.23;;;;;;;3.29;92.35;95604.34;5054511;28;21090;-79
2021/10/22 03:23:48;;;;;;;14.80;2.43;;;;;;;3.32;92.79;95606.69;5054198;28;20185;-80
2021/10/22 03:26:13;;;;;;;5.17;2.00;;;;;;;3.28;92.37;95603.53;5054781;28;20232;-81
2021/10/22 03:28:39;;;;;;;10.70;2.53;;;;;;;3.26;92.29;95607.09;5054191;28;20213;-79
2021/10/22 03:31:04;;;;;;;7.27;2.20;;;;;;;3.26;92.11;95599.38;5037669;28;20169;-81
2021/10/22 03:33:29;;;;;;;10.60;1.83;;;;;;;3.29;92.32;95604.34;5037690;28;20542;-79
2021/10/22 03:35:55;;;;;;;15.87;3.10;;;;;;;3.28;92.38;95600.13;5053317;28;20643;-78
2021/10/22 03:38:20;;;;;;;17.67;2.47;;;;;;;3.23;92.09;95615.00;5037801;28;20204;-79
2021/10/22 03:40:45;;;;;;;9.07;2.13;;;;;;;3.24;92.37;95617.47;5054311;28;20185;-79
2021/10/22 03:43:10;;;;;;;5.30;1.70;;;;;;;3.24;91.83;95616.63;5037838;28;20226;-79
2021/10/22 03:45:36;;;;;;;9.00;1.97;;;;;;;3.18;91.77;95619.59;5053786;28;20181;-79
2021/10/22 03:48:01;;;;;;;6.77;2.10;;;;;;;3.18;91.84;95623.03;5037522;28;20212;-80
2021/10/22 03:50:26;;;;;;;7.63;2.73;;;;;;;3.16;91.91;95627.41;5071804;28;20181;-79
2021/10/22 03:52:53;;;;;;;12.73;3.00;;;;;;;3.13;91.68;95625.88;5038081;28;20367;-79
2021/10/22 03:55:18;;;;;;;8.47;2.47;;;;;;;3.13;91.67;95635.31;5036910;28;20264;-78
2021/10/22 03:57:43;;;;;;;7.10;2.10;;;;;;;3.12;91.62;95634.50;5054598;28;20231;-79
2021/10/22 04:00:09;;;;;;;9.30;2.87;;;;;;;3.09;91.51;95632.16;5056942;28;20268;-78
2021/10/22 04:02:35;;;;;;;12.80;2.70;;;;;;;3.07;91.58;95633.97;5061829;28;20187;-80
2021/10/22 04:05:03;;;;;;;11.77;2.50;;;;;;;3.06;91.88;95634.06;5036761;28;20471;-79
2021/10/22 04:07:28;;;;;;;7.70;2.10;;;;;;;3.00;91.77;95624.19;5037266;28;20209;-79
2021/10/22 04:09:54;;;;;;;11.00;2.37;;;;;;;3.04;92.15;95639.31;5053806;28;20184;-79
2021/10/22 04:12:19;;;;;;;10.47;2.37;;;;;;;2.99;91.95;95641.34;5054185;28;20632;-80
2021/10/22 04:14:45;;;;;;;11.20;2.43;;;;;;;2.96;92.01;95633.03;5053902;28;20562;-79
2021/10/22 04:17:10;;;;;;;7.37;2.23;;;;;;;2.94;92.30;95643.38;5036650;28;20664;-79
2021/10/22 04:19:36;;;;;;;8.13;2.27;;;;;;;2.93;92.30;95641.75;5054023;28;20173;-79
2021/10/22 04:22:01;;;;;;;6.57;2.07;;;;;;;2.97;92.80;95635.47;5037168;28;20177;-79
2021/10/22 04:24:26;;;;;;;11.40;3.43;;;;;;;2.95;92.68;95631.38;5052738;28;20173;-79
2021/10/22 04:26:52;;;;;;;11.93;2.90;;;;;;;2.92;92.16;95631.59;5051711;28;20539;-80
2021/10/22 04:29:18;;;;;;;6.87;2.90;;;;;;;2.85;92.48;95636.28;5036838;28;20199;-81
2021/10/22 04:31:43;;;;;;;10.83;2.83;;;;;;;2.78;92.91;95637.59;5053625;28;20193;-78
2021/10/22 04:34:09;;;;;;;10.97;2.80;;;;;;;2.83;92.49;95638.13;5036177;28;20181;-79
2021/10/22 04:36:36;;;;;;;9.23;2.93;;;;;;;2.64;92.59;95642.75;5036672;28;20173;-79
2021/10/22 04:41:46;;;;;;;11.30;4.03;;;;;;;2.62;92.81;95649.75;5056421;28;20185;-80
2021/10/22 04:44:11;;;;;;;11.13;4.03;;;;;;;2.51;92.49;95648.69;5052843;28;20182;-79
2021/10/22 04:46:38;;;;;;;10.87;4.03;;;;;;;2.49;92.79;95645.41;5055469;28;20227;-80
2021/10/22 04:49:03;;;;;;;33.97;16.07;;;;;;;2.41;92.81;95639.09;5057169;28;20212;-80
2021/10/22 04:51:28;;;;;;;32.67;17.60;;;;;;;2.42;92.93;95635.63;5056886;28;20243;-79
2021/10/22 04:53:53;;;;;;;12.27;5.60;;;;;;;2.40;93.42;95642.59;5056089;28;20287;-78
2021/10/22 04:56:19;;;;;;;12.50;3.10;;;;;;;2.38;93.14;95637.53;5039812;28;20192;-79
2021/10/22 04:58:45;;;;;;;9.07;2.90;;;;;;;2.43;92.41;95634.69;5056891;28;20199;-80
2021/10/22 05:01:11;;;;;;;14.27;2.83;;;;;;;2.46;92.67;95637.06;5074330;28;20175;-79
2021/10/22 05:03:36;;;;;;;10.87;3.50;;;;;;;2.41;92.31;95639.91;5055177;28;20211;-80
2021/10/22 05:06:01;;;;;;;11.10;2.40;;;;;;;2.45;92.23;95640.53;5056700;28;20192;-78
2021/10/22 05:08:27;;;;;;;11.90;3.23;;;;;;;2.45;92.05;95651.63;5056832;28;20235;-79
2021/10/22 05:10:52;;;;;;;13.27;3.00;;;;;;;2.48;91.77;95645.50;5040287;28;20183;-79
2021/10/22 05:13:18;;;;;;;10.77;2.50;;;;;;;2.46;91.93;95643.00;5057155;28;20196;-80
2021/10/22 05:15:43;;;;;;;12.37;2.77;;;;;;;2.44;91.40;95651.72;5056078;28;20191;-79
2021/10/22 05:18:08;;;;;;;13.87;2.83;;;;;;;2.45;91.20;95641.34;5040296;28;20202;-79
2021/10/22 05:20:33;;;;;;;11.73;2.70;;;;;;;2.44;91.24;95649.16;5057064;28;20181;-79
2021/10/22 05:22:59;;;;;;;19.97;2.57;;;;;;;2.46;91.29;95645.56;5074658;28;20189;-79
2021/10/22 05:25:24;;;;;;;10.47;2.87;;;;;;;2.42;91.27;95645.88;5056210;28;20187;-79
2021/10/22 05:27:50;;;;;;;13.73;2.73;;;;;;;2.44;91.58;95644.84;5040612;28;20598;-80
2021/10/22 05:30:16;;;;;;;13.53;3.00;;;;;;;2.46;91.46;95655.81;5076007;28;20209;-79
2021/10/22 05:32:42;;;;;;;12.50;3.30;;;;;;;2.48;91.11;95656.56;5076366;28;20181;-80
2021/10/22 05:35:08;;;;;;;10.03;2.63;;;;;;;2.48;91.44;95648.88;5059962;28;20177;-84
2021/10/22 05:37:33;;;;;;;10.73;2.73;;;;;;;2.49;91.35;95654.81;5050495;28;20300;-82
2021/10/22 05:39:59;;;;;;;15.13;3.30;;;;;;;2.52;91.62;95658.00;5070313;28;20387;-78
2021/10/22 05:42:24;;;;;;;17.87;4.67;;;;;;;2.54;90.82;95656.16;5094750;28;20644;-79
2021/10/22 05:44:50;;;;;;;10.50;2.80;;;;;;;2.55;90.71;95651.84;5074301;28;20185;-82
2021/10/22 05:47:15;;;;;;;12.30;2.57;;;;;;;2.57;90.68;95654.34;5076011;28;20707;-82
2021/10/22 05:49:42;;;;;;;15.20;2.57;;;;;;;2.57;90.72;95660.31;5058331;28;20248;-78
2021/10/22 05:52:08;;;;;;;13.93;2.47;;;;;;;2.52;90.26;95660.56;5075714;28;20585;-80
2021/10/22 05:54:33;;;;;;;19.60;2.60;;;;;;;2.49;90.31;95654.81;5057984;28;20181;-81
2021/10/22 05:56:58;;;;;;;10.67;2.97;;;;;;;2.49;90.13;95645.41;5061704;28;20183;-79
2021/10/22 05:59:24;;;;;;;10.17;2.43;;;;;;;2.49;89.98;95650.53;5057871;28;20238;-80
2021/10/22 06:01:50;;;;;;;11.27;2.23;;;;;;;2.48;90.03;95661.69;5074897;28;20189;-79
2021/10/22 06:04:15;;;;;;;14.13;2.77;;;;;;;2.43;90.41;95653.47;5057839;28;20184;-79
2021/10/22 06:06:40;;;;;;;9.63;2.30;;;;;;;2.48;90.26;95654.00;5074737;28;20282;-80
2021/10/22 06:09:06;;;;;;;6.97;1.87;;;;;;;2.43;90.17;95650.91;5058836;28;20229;-80
2021/10/22 06:11:31;;;;;;;14.30;2.47;;;;;;;2.46;90.38;95657.56;5049591;28;20720;-80
2021/10/22 06:13:57;;;;;;;10.87;2.33;;;;;;;2.44;90.04;95661.97;5061201;28;20769;-79
2021/10/22 06:16:23;;;;;;;7.40;2.30;;;;;;;2.42;90.16;95663.81;5052138;28;20192;-80
2021/10/22 06:18:50;;;;;;;12.93;2.53;;;;;;;2.46;89.88;95670.38;5052513;28;20309;-81
2021/10/22 06:21:28;;;;;;;13.67;2.40;;;;;;;2.51;89.88;95665.81;5055576;28;20193;-79
2021/10/22 06:23:59;;;;;;;10.57;2.73;;;;;;;2.53;90.00;95662.22;5072299;28;20277;-79
2021/10/22 06:26:27;;;;;;;15.97;3.30;;;;;;;2.66;89.26;95676.84;5072318;28;20188;-81
2021/10/22 06:28:53;;;;;;;11.67;2.93;;;;;;;2.64;89.07;95673.53;5054956;28;20216;-80
2021/10/22 06:31:20;;;;;;;7.57;2.27;;;;;;;2.68;88.76;95678.38;5078752;28;20199;-80
2021/10/22 06:33:45;;;;;;;19.40;3.10;;;;;;;2.72;88.31;95679.81;5075336;28;20320;-81
2021/10/22 06:36:11;;;;;;;12.60;2.67;;;;;;;2.84;87.50;95694.47;5059377;28;20208;-81
2021/10/22 06:38:36;;;;;;;15.33;3.10;;;;;;;2.99;87.42;95697.78;5056480;28;20701;-81
2021/10/22 06:41:03;;;;;;;12.23;2.73;;;;;;;3.05;87.04;95704.25;5055324;28;20189;-80
2021/10/22 06:43:28;;;;;;;12.03;2.60;;;;;;;3.07;87.49;95708.38;5072138;28;20258;-80
2021/10/22 06:45:53;;;;;;;12.07;2.77;;;;;;;3.18;86.44;95699.16;5072034;28;20183;-80
2021/10/22 06:48:19;;;;;;;11.80;2.33;;;;;;;3.27;86.05;95701.13;5055790;28;20218;-81
2021/10/22 06:50:45;;;;;;;8.20;2.40;;;;;;;3.26;85.41;95702.06;5072117;28;20188;-79
2021/10/22 06:53:11;;;;;;;9.13;2.57;;;;;;;3.27;85.98;95704.53;5054274;28;20235;-79
2021/10/22 06:55:37;;;;;;;9.80;2.40;;;;;;;3.29;85.60;95694.16;5056405;28;20186;-80
2021/10/22 06:58:06;;;;;;;11.33;2.03;;;;;;;3.39;85.37;95702.91;5073181;28;20203;-87
2021/10/22 07:00:32;;;;;;;16.30;4.03;;;;;;;3.45;84.88;95706.84;5058354;28;20198;-80
2021/10/22 07:02:58;;;;;;;12.20;2.70;;;;;;;3.53;84.62;95712.25;5057899;28;20192;-81
2021/10/22 07:08:08;;;;;;;14.33;2.50;;;;;;;3.57;84.76;95732.53;5076651;28;20218;-79
2021/10/22 07:10:33;;;;;;;8.97;2.33;;;;;;;3.65;84.14;95744.88;5081229;28;20706;-79
2021/10/22 07:12:59;;;;;;;13.63;2.60;;;;;;;3.72;84.20;95748.69;5054822;28;20194;-79
2021/10/22 07:15:26;;;;;;;10.63;2.37;;;;;;;3.83;84.35;95753.91;5057498;28;20230;-81
2021/10/22 07:17:52;;;;;;;10.53;2.87;;;;;;;3.83;83.69;95761.63;5057264;28;20210;-80
2021/10/22 07:20:18;;;;;;;10.47;2.23;;;;;;;3.82;84.16;95772.00;5057711;28;20266;-79
2021/10/22 07:22:51;;;;;;;13.37;2.67;;;;;;;3.88;84.31;95771.59;5074016;28;20184;-80
2021/10/22 07:25:18;;;;;;;11.70;2.43;;;;;;;3.94;84.48;95781.47;5057027;28;20188;-80
2021/10/22 07:27:44;;;;;;;9.57;2.53;;;;;;;3.99;83.51;95792.28;5057008;28;20227;-80
2021/10/22 07:30:10;;;;;;;5.67;3.03;;;;;;;4.12;83.30;95795.66;5057511;28;20190;-81
2021/10/22 07:32:36;;;;;;;14.83;3.37;;;;;;;4.09;82.86;95800.19;5074439;28;20194;-79
2021/10/22 07:35:02;;;;;;;16.17;2.57;;;;;;;4.07;83.07;95804.63;5056068;28;20211;-82
2021/10/22 07:37:28;;;;;;;7.17;2.10;;;;;;;4.16;82.25;95802.25;5057770;28;20659;-81
2021/10/22 07:39:54;;;;;;;10.23;2.80;;;;;;;4.21;82.86;95819.94;5058004;28;20192;-80
2021/10/22 07:42:20;;;;;;;7.60;2.90;;;;;;;4.28;82.10;95816.03;5057905;28;20180;-81
2021/10/22 07:44:45;;;;;;;11.27;3.27;;;;;;;4.22;82.02;95824.16;5056889;28;20187;-80
2021/10/22 07:47:10;;;;;;;7.07;2.40;;;;;;;4.36;81.66;95823.25;5073206;28;20540;-81
2021/10/22 07:49:36;;;;;;;9.67;3.47;;;;;;;4.37;81.63;95830.84;5073825;28;20194;-80
2021/10/22 07:52:01;;;;;;;10.07;2.83;;;;;;;4.45;80.54;95828.56;5057394;28;20194;-77
2021/10/22 07:54:26;;;;;;;10.83;3.40;;;;;;;4.45;80.73;95838.88;5057256;28;20626;-81
2021/10/22 07:56:52;;;;;;;14.53;4.57;;;;;;;4.52;80.05;95841.84;5074465;28;20184;-80
2021/10/22 07:59:17;;;;;;;15.90;4.73;;;;;;;4.58;80.24;95848.31;5042844;28;20206;-79
2021/10/22 08:01:44;;;;;;;11.70;4.87;;;;;;;4.60;79.69;95844.72;5057118;28;20252;-81
2021/10/22 08:04:12;;;;;;;12.47;3.60;;;;;;;4.66;79.94;95854.59;5056513;28;20654;-81
2021/10/22 08:06:38;;;;;;;9.13;3.03;;;;;;;4.70;80.12;95858.63;5057933;28;20181;-81
2021/10/22 08:09:07;;;;;;;7.07;2.67;;;;;;;4.62;80.53;95862.63;5057836;28;20211;-81
2021/10/22 08:11:32;;;;;;;10.47;2.23;;;;;;;4.69;80.68;95867.25;5058441;28;20211;-80
2021/10/22 08:13:58;;;;;;;10.90;2.20;;;;;;;4.74;80.66;95879.78;5075051;28;20189;-81
2021/10/22 08:16:23;;;;;;;10.00;2.00;;;;;;;4.77;80.61;95875.28;5055920;28;20192;-82
2021/10/22 08:18:49;;;;;;;10.53;1.77;;;;;;;4.76;80.26;95886.47;5053727;28;20755;-78
2021/10/22 08:23:43;;;;;;;9.90;2.10;;;;;;;4.91;79.73;95887.19;5077312;28;20212;-78
2021/10/22 08:26:08;;;;;;;7.33;1.80;;;;;;;4.99;79.50;95886.69;5060719;28;20207;-79
2021/10/22 08:28:34;;;;;;;7.33;2.23;;;;;;;5.05;79.30;95878.53;5076316;28;20227;-77
2021/10/22 08:31:00;;;;;;;8.63;2.30;;;;;;;5.03;79.37;95883.78;5062606;28;20181;-79
2021/10/22 08:33:26;;;;;;;8.23;2.40;;;;;;;5.03;78.72;95877.81;5062450;28;20235;-79
2021/10/22 08:35:55;;;;;;;9.03;2.83;;;;;;;5.07;79.70;95881.81;5078435;28;20707;-80
2021/10/22 08:38:21;;;;;;;6.43;2.53;;;;;;;5.13;78.73;95875.44;5060863;28;20200;-82
2021/10/22 08:40:47;;;;;;;5.83;1.67;;;;;;;5.18;79.18;95876.75;5062158;28;20547;-81
2021/10/22 08:43:12;;;;;;;9.50;3.07;;;;;;;5.23;77.71;95871.28;5077537;28;20555;-81
2021/10/22 08:45:38;;;;;;;11.17;2.10;;;;;;;5.25;77.47;95874.56;5060197;28;20666;-81
2021/10/22 08:48:04;;;;;;;10.20;1.90;;;;;;;5.35;77.70;95883.31;5060071;28;20211;-81
2021/10/22 08:50:30;;;;;;;8.70;2.33;;;;;;;5.38;76.86;95883.06;5095631;28;20191;-81
2021/10/22 08:52:55;;;;;;;10.80;2.03;;;;;;;5.38;76.36;95889.03;5077692;28;20181;-81
2021/10/22 08:55:21;;;;;;;10.30;2.33;;;;;;;5.42;75.87;95886.28;5059604;28;20191;-81
2021/10/22 08:57:48;;;;;;;10.97;2.03;;;;;;;5.36;75.36;95883.19;5059789;28;20572;-81
2021/10/22 09:00:16;;;;;;;8.87;2.03;;;;;;;5.46;75.33;95883.38;5077206;28;20211;-82
2021/10/22 09:02:44;;;;;;;9.20;1.87;;;;;;;5.53;73.97;95883.75;5077117;28;20215;-80
2021/10/22 09:05:15;;;;;;;9.47;2.57;;;;;;;5.63;74.58;95888.16;5060945;28;20231;-81
2021/10/22 09:07:46;;;;;;;9.27;2.00;;;;;;;5.66;73.41;95890.53;5077647;28;20216;-79
2021/10/22 09:10:16;;;;;;;9.73;2.03;;;;;;;5.74;73.60;95891.72;5078036;28;20687;-79
2021/10/22 09:12:47;;;;;;;12.60;2.47;;;;;;;5.80;72.27;95886.94;5062248;28;20193;-79
2021/10/22 09:15:14;;;;;;;8.93;1.90;;;;;;;5.66;70.70;95887.94;5061302;28;20188;-81
2021/10/22 09:17:41;;;;;;;9.83;2.43;;;;;;;5.80;71.40;95892.09;5078794;28;20287;-81
2021/10/22 09:20:08;;;;;;;8.33;3.07;;;;;;;5.92;72.14;95891.28;5078053;28;20207;-81
2021/10/22 09:22:35;;;;;;;7.40;2.53;;;;;;;5.82;72.30;95886.81;5061508;28;20725;-81
2021/10/22 09:25:11;;;;;;;8.17;1.90;;;;;;;5.78;69.98;95882.84;5059802;28;20268;-80
2021/10/22 09:27:45;;;;;;;6.30;2.20;;;;;;;5.85;70.37;95890.03;5061327;28;20218;-80
2021/10/22 09:30:23;;;;;;;10.63;1.93;;;;;;;6.00;70.93;95892.44;5061110;28;20176;-80
2021/10/22 09:32:49;;;;;;;9.90;2.23;;;;;;;6.01;70.97;95891.50;5076347;28;20188;-81
2021/10/22 09:35:18;;;;;;;8.60;2.23;;;;;;;6.05;70.99;95903.25;5076683;28;20639;-79
2021/10/22 09:37:45;;;;;;;11.47;2.37;;;;;;;5.97;69.19;95904.63;5077251;28;20193;-81
2021/10/22 09:40:10;;;;;;;10.50;1.80;;;;;;;6.03;68.83;95905.13;5060853;28;20183;-81
2021/10/22 09:42:47;;;;;;;6.53;1.57;;;;;;;6.08;67.74;95895.28;5061007;28;20264;-81
2021/10/22 09:45:24;;;;;;;7.17;2.13;;;;;;;6.18;70.03;95901.41;5059820;28;20285;-82
2021/10/22 09:47:49;;;;;;;11.53;2.13;;;;;;;6.04;67.47;95894.69;5059749;28;20227;-84
2021/10/22 09:50:15;;;;;;;9.23;2.00;;;;;;;6.27;68.59;95899.91;5076423;28;20180;-81
2021/10/22 09:52:40;;;;;;;11.80;2.03;;;;;;;6.31;69.70;95898.78;5058804;28;20206;-81
2021/10/22 09:55:09;;;;;;;6.67;2.07;;;;;;;6.40;68.08;95893.75;5075807;28;20187;-81
2021/10/22 09:57:36;;;;;;;7.93;2.00;;;;;;;6.52;68.32;95894.59;5058659;28;20250;-81
2021/10/22 10:00:05;;;;;;;9.17;2.07;;;;;;;6.59;68.06;95892.38;5075686;28;20610;-81
2021/10/22 10:02:30;;;;;;;9.20;2.20;;;;;;;6.58;68.33;95894.16;5059174;28;20191;-82
2021/10/22 10:04:56;;;;;;;10.60;3.20;;;;;;;6.63;67.97;95901.56;5075281;28;20592;-81
2021/10/22 10:07:23;;;;;;;9.10;2.00;;;;;;;6.65;65.48;95897.91;5060492;28;20208;-82
2021/10/22 10:09:50;;;;;;;9.30;1.77;;;;;;;6.62;66.45;95900.72;5060252;28;20184;-79
2021/10/22 10:12:15;;;;;;;14.27;2.43;;;;;;;6.72;66.88;95900.88;5059386;28;20267;-80
2021/10/22 10:14:40;;;;;;;10.70;2.47;;;;;;;6.78;67.16;95900.38;5075231;28;20746;-80
2021/10/22 10:17:06;;;;;;;8.00;2.73;;;;;;;6.84;65.74;95899.94;5075342;28;20184;-81
2021/10/22 10:19:37;;;;;;;10.33;2.23;;;;;;;6.76;65.03;95902.28;5056467;28;20194;-80
2021/10/22 10:22:06;;;;;;;9.30;2.30;;;;;;;6.70;64.80;95900.97;5060157;28;20195;-79
2021/10/22 10:24:58;;;;;;;9.30;2.20;;;;;;;6.64;65.32;95895.47;5059374;28;20263;-79
2021/10/22 10:27:25;;;;;;;7.93;2.20;;;;;;;6.78;65.47;95906.38;5075213;28;20208;-80
2021/10/22 10:29:58;;;;;;;7.83;2.07;;;;;;;6.63;62.45;95901.56;5058291;28;20180;-79
2021/10/22 10:32:25;;;;;;;10.00;2.60;;;;;;;6.73;62.55;95900.75;5058970;28;20543;-79
2021/10/22 10:34:53;;;;;;;7.87;1.87;;;;;;;6.77;61.41;95902.16;5057612;28;20184;-79
2021/10/22 10:37:38;;;;;;;7.50;1.57;;;;;;;6.63;60.11;95904.13;5057731;28;20184;-79
2021/10/22 10:40:25;;;;;;;7.40;1.80;;;;;;;6.71;62.54;95907.75;5075011;28;20210;-80
2021/10/22 10:42:54;;;;;;;8.07;1.80;;;;;;;6.49;60.55;95905.97;5090666;28;20184;-79
2021/10/22 10:45:26;;;;;;;6.53;2.10;;;;;;;6.78;62.85;95908.13;5074625;28;20192;-78
2021/10/22 10:47:59;;;;;;;7.80;2.20;;;;;;;6.76;63.58;95915.19;5093083;28;20212;-79
2021/10/22 10:50:33;;;;;;;6.43;1.97;;;;;;;6.73;64.11;95912.84;5058336;28;20215;-77
2021/10/22 10:52:59;;;;;;;6.93;2.00;;;;;;;6.75;63.77;95906.63;5074159;28;20274;-78
2021/10/22 10:55:40;;;;;;;9.87;3.03;;;;;;;6.85;64.07;95904.16;5073485;28;20663;-80
2021/10/22 10:58:08;;;;;;;10.23;2.00;;;;;;;7.03;64.59;95910.50;5075692;28;20216;-79
2021/10/22 11:00:38;;;;;;;12.07;2.40;;;;;;;7.12;63.60;95913.31;5075594;28;20180;-83
2021/10/22 11:03:04;;;;;;;8.30;2.40;;;;;;;7.03;63.77;95918.25;5059020;28;20207;-80
2021/10/22 11:08:13;;;;;;;5.57;1.87;;;;;;;6.96;61.66;95913.66;5093114;28;20220;-80
2021/10/22 11:13:54;;;;;;;7.33;1.43;;;;;;;7.04;59.76;95912.13;5049000;28;20260;-80
2021/10/22 11:16:22;;;;;;;7.63;2.00;;;;;;;7.04;61.14;95921.66;5083489;28;20651;-82
2021/10/22 11:18:59;;;;;;;13.40;2.50;;;;;;;7.05;60.03;95923.28;5093481;28;20200;-80
2021/10/22 11:21:36;;;;;;;8.10;1.73;;;;;;;7.10;60.86;95922.00;5073735;28;20176;-81
2021/10/22 11:24:04;;;;;;;8.40;2.00;;;;;;;7.08;61.61;95923.06;5056648;28;20192;-80
2021/10/22 11:26:30;;;;;;;10.73;1.90;;;;;;;7.17;61.62;95929.31;5076204;28;20231;-80
2021/10/22 11:29:00;;;;;;;6.33;1.80;;;;;;;7.14;60.33;95930.34;5074305;28;20687;-81
2021/10/22 11:31:40;;;;;;;12.17;2.30;;;;;;;7.31;60.07;95929.88;5074351;28;20210;-80
2021/10/22 11:34:07;;;;;;;9.03;2.17;;;;;;;7.15;58.93;95931.97;5054216;28;20180;-79
2021/10/22 11:36:33;;;;;;;8.00;2.30;;;;;;;7.10;59.76;95936.69;5077324;28;20192;-79
2021/10/22 11:39:00;;;;;;;6.63;1.93;;;;;;;7.25;60.08;95945.84;5058888;28;20617;-79
2021/10/22 11:41:26;;;;;;;10.43;2.23;;;;;;;7.22;59.08;95925.41;5075094;28;20180;-79
2021/10/22 11:44:02;;;;;;;6.00;2.20;;;;;;;7.17;59.36;95927.53;5073579;28;20192;-80
2021/10/22 11:46:45;;;;;;;8.43;2.20;;;;;;;7.13;58.27;95930.47;5092997;28;20196;-79
2021/10/22 11:49:25;;;;;;;8.03;2.10;;;;;;;7.17;58.23;95931.88;5073506;28;20212;-81
2021/10/22 11:51:52;;;;;;;10.57;2.50;;;;;;;7.36;59.53;95926.94;5057517;28;20306;-82